ADDS - METARS form results

Aviation Digital Data Service (ADDS)

Output produced by METARs form (1125 UTC 05 December 2020)
found at http://aviationweather.gov/metar/data/
 
METAR text: KJOT 051115Z AUTO 35003KT 10SM CLR M05/M06 A3015 RMK AO2 T10491060
Conditions at: KJOT (JOLIET , IL, US) observed 1115 UTC 05 December 2020
Temperature: -4.9°C (23°F)
Dewpoint: -6.0°C (21°F) [RH = 92%]
Pressure (altimeter): 30.15 inches Hg (1021.1 mb)
Winds: from the N (350 degrees) at 3 MPH (3 knots; 1.5 m/s)
Visibility: 10 or more miles (16+ km)
Ceiling: at least 12,000 feet AGL
Clouds: sky clear below 12,000 feet AGL
Weather: automated observation with no human augmentation;
there may or may not be significant weather present at this time

METAR text: KJOT 051055Z AUTO 00000KT 10SM CLR M05/M05 A3014 RMK AO2 T10461055
Conditions at: KJOT (JOLIET , IL, US) observed 1055 UTC 05 December 2020
Temperature: -4.6°C (24°F)
Dewpoint: -5.5°C (22°F) [RH = 93%]
Pressure (altimeter): 30.14 inches Hg (1020.7 mb)
Winds: calm
Visibility: 10 or more miles (16+ km)
Ceiling: at least 12,000 feet AGL
Clouds: sky clear below 12,000 feet AGL
Weather: automated observation with no human augmentation;
there may or may not be significant weather present at this time

METAR text: KJOT 051035Z AUTO 36003KT 10SM CLR M04/M04 A3013 RMK AO2 T10361044
Conditions at: KJOT (JOLIET , IL, US) observed 1035 UTC 05 December 2020
Temperature: -3.6°C (26°F)
Dewpoint: -4.4°C (24°F) [RH = 94%]
Pressure (altimeter): 30.13 inches Hg (1020.4 mb)
Winds: from the N (360 degrees) at 3 MPH (3 knots; 1.5 m/s)
Visibility: 10 or more miles (16+ km)
Ceiling: at least 12,000 feet AGL
Clouds: sky clear below 12,000 feet AGL
Weather: automated observation with no human augmentation;
there may or may not be significant weather present at this time